Pagina principale
METAR-TAF:

METAR-TAF

Aeroporti :

Viterbo, Italia

Aeroporto di Viterbo

latitudine: 42-26N, longitudine: 012-03E, altezza: 300 m

Osservazione

Il bollettino è stato emesso 1 ora e 16 minuti fa, alle 06:55 UTC
Vento 6 kt da nord/nord-est
Temperature 19°C
Umidità 52%
Pressione 1020 hPa
Visibilità 10 km o più
nessuna nube inferiore a 1500 m e nessun cumulonembo

METAR: LIRV 270655Z 03006KT CAVOK 19/09 Q1020 RMK SKC MON E SE LIB NC VIS MIN 9999 BLU

Ora: 10:11 (08:11 UTC)

Previsione

Il bollettino è stato emesso 18 ore e 11 minuti fa, alle 14:00 UTC
Previsione valida dal 26 alle 15 UTC al 26 alle 24 UTC
Vento 14 kt da nord/nord-est
Visibilità 10 km o più
Poco nuvoloso ad un'altezza di 2500 ft

TAF: LIRV 261400Z 2615/2624 03014KT 9999 FEW025

Osservazioni e previsioni meteorologiche di più di 4000 aeroporti (messaggi METAR e TAF).

Le stazioni disponibili sono rappresentate dai dischi gialli e rossi sulla carta.

Puntare il mouse per vedere il nome della stazione.

Clicca sopra per visualizzare le osservazioni e previsioni meteorologiche.

Per cambiare la mappa : fare clic sui pulsanti verdi con una croce nera per ingrandire, il pulsante verde con un trattino per diminuire, o sulla freccia verde per le mappe adiacenti.


METAR-TAF: